sensor_id;sensor_type;location;lat;lon;timestamp;P1;durP1;ratioP1;P2;durP2;ratioP2
21060;SDS011;10689;50.836;3.266;2022-09-09T00:07:09;0.22;;;0.22;;
21060;SDS011;10689;50.836;3.266;2022-09-09T00:15:18;0.40;;;0.40;;
21060;SDS011;10689;50.836;3.266;2022-09-09T00:20:36;0.30;;;0.30;;
21060;SDS011;10689;50.836;3.266;2022-09-09T00:23:35;0.80;;;0.50;;
21060;SDS011;10689;50.836;3.266;2022-09-09T00:28:58;0.28;;;0.28;;
21060;SDS011;10689;50.836;3.266;2022-09-09T00:31:34;0.38;;;0.38;;
21060;SDS011;10689;50.836;3.266;2022-09-09T00:34:09;0.93;;;0.43;;
21060;SDS011;10689;50.836;3.266;2022-09-09T00:36:46;0.20;;;0.20;;
21060;SDS011;10689;50.836;3.266;2022-09-09T00:39:24;0.20;;;0.20;;
21060;SDS011;10689;50.836;3.266;2022-09-09T00:44:51;0.28;;;0.28;;
21060;SDS011;10689;50.836;3.266;2022-09-09T00:47:49;0.17;;;0.17;;
21060;SDS011;10689;50.836;3.266;2022-09-09T00:55:16;1.10;;;1.00;;
21060;SDS011;10689;50.836;3.266;2022-09-09T00:57:52;0.20;;;0.20;;
21060;SDS011;10689;50.836;3.266;2022-09-09T01:05:54;0.40;;;0.40;;
21060;SDS011;10689;50.836;3.266;2022-09-09T01:08:48;0.28;;;0.28;;
21060;SDS011;10689;50.836;3.266;2022-09-09T01:11:26;0.20;;;0.20;;
21060;SDS011;10689;50.836;3.266;2022-09-09T01:17:09;0.35;;;0.35;;
21060;SDS011;10689;50.836;3.266;2022-09-09T01:22:29;1.35;;;1.00;;
21060;SDS011;10689;50.836;3.266;2022-09-09T01:27:54;0.20;;;0.20;;
21060;SDS011;10689;50.836;3.266;2022-09-09T01:30:27;0.40;;;0.40;;
21060;SDS011;10689;50.836;3.266;2022-09-09T01:32:54;0.10;;;0.10;;
21060;SDS011;10689;50.836;3.266;2022-09-09T01:37:58;1.45;;;0.73;;
21060;SDS011;10689;50.836;3.266;2022-09-09T01:40:24;0.20;;;0.20;;
21060;SDS011;10689;50.836;3.266;2022-09-09T01:42:51;0.32;;;0.32;;
21060;SDS011;10689;50.836;3.266;2022-09-09T01:45:18;0.20;;;0.20;;
21060;SDS011;10689;50.836;3.266;2022-09-09T01:47:44;0.20;;;0.20;;
21060;SDS011;10689;50.836;3.266;2022-09-09T01:50:11;0.30;;;0.30;;
21060;SDS011;10689;50.836;3.266;2022-09-09T01:52:40;4.30;;;1.50;;
21060;SDS011;10689;50.836;3.266;2022-09-09T01:55:09;0.40;;;0.40;;
21060;SDS011;10689;50.836;3.266;2022-09-09T01:57:48;0.63;;;0.63;;
21060;SDS011;10689;50.836;3.266;2022-09-09T02:00:27;0.20;;;0.20;;
21060;SDS011;10689;50.836;3.266;2022-09-09T02:05:43;0.47;;;0.40;;
21060;SDS011;10689;50.836;3.266;2022-09-09T02:13:16;0.35;;;0.35;;
21060;SDS011;10689;50.836;3.266;2022-09-09T02:18:40;0.25;;;0.25;;
21060;SDS011;10689;50.836;3.266;2022-09-09T02:21:13;0.20;;;0.20;;
21060;SDS011;10689;50.836;3.266;2022-09-09T02:23:39;0.90;;;0.85;;
21060;SDS011;10689;50.836;3.266;2022-09-09T02:26:07;0.60;;;0.38;;
21060;SDS011;10689;50.836;3.266;2022-09-09T02:28:35;0.20;;;0.20;;
21060;SDS011;10689;50.836;3.266;2022-09-09T02:31:03;0.28;;;0.28;;
21060;SDS011;10689;50.836;3.266;2022-09-09T02:33:32;1.58;;;0.82;;
21060;SDS011;10689;50.836;3.266;2022-09-09T02:36:00;0.10;;;0.10;;
21060;SDS011;10689;50.836;3.266;2022-09-09T02:38:29;1.23;;;0.95;;
21060;SDS011;10689;50.836;3.266;2022-09-09T02:40:58;0.40;;;0.40;;
21060;SDS011;10689;50.836;3.266;2022-09-09T02:43:24;0.20;;;0.20;;
21060;SDS011;10689;50.836;3.266;2022-09-09T02:46:14;15.35;;;1.25;;
21060;SDS011;10689;50.836;3.266;2022-09-09T02:49:06;0.30;;;0.30;;
21060;SDS011;10689;50.836;3.266;2022-09-09T02:51:37;0.38;;;0.38;;
21060;SDS011;10689;50.836;3.266;2022-09-09T02:56:55;0.15;;;0.15;;
21060;SDS011;10689;50.836;3.266;2022-09-09T02:59:26;4.60;;;1.63;;
21060;SDS011;10689;50.836;3.266;2022-09-09T03:01:52;0.40;;;0.40;;
21060;SDS011;10689;50.836;3.266;2022-09-09T03:04:18;0.20;;;0.20;;
21060;SDS011;10689;50.836;3.266;2022-09-09T03:06:44;1.38;;;1.10;;
21060;SDS011;10689;50.836;3.266;2022-09-09T03:09:09;1.45;;;0.88;;
21060;SDS011;10689;50.836;3.266;2022-09-09T03:11:35;0.22;;;0.22;;
21060;SDS011;10689;50.836;3.266;2022-09-09T03:14:03;0.22;;;0.22;;
21060;SDS011;10689;50.836;3.266;2022-09-09T03:16:29;1.38;;;1.27;;
21060;SDS011;10689;50.836;3.266;2022-09-09T03:18:55;0.45;;;0.45;;
21060;SDS011;10689;50.836;3.266;2022-09-09T03:21:20;3.83;;;1.08;;
21060;SDS011;10689;50.836;3.266;2022-09-09T03:23:46;1.17;;;0.80;;
21060;SDS011;10689;50.836;3.266;2022-09-09T03:26:12;0.20;;;0.20;;
21060;SDS011;10689;50.836;3.266;2022-09-09T03:28:40;2.08;;;1.27;;
21060;SDS011;10689;50.836;3.266;2022-09-09T03:31:06;2.67;;;1.10;;
21060;SDS011;10689;50.836;3.266;2022-09-09T03:33:35;2.42;;;1.15;;
21060;SDS011;10689;50.836;3.266;2022-09-09T03:36:05;0.17;;;0.17;;
21060;SDS011;10689;50.836;3.266;2022-09-09T03:38:32;0.20;;;0.20;;
21060;SDS011;10689;50.836;3.266;2022-09-09T03:40:58;0.85;;;0.85;;
21060;SDS011;10689;50.836;3.266;2022-09-09T03:43:26;2.60;;;0.73;;
21060;SDS011;10689;50.836;3.266;2022-09-09T03:45:52;13.43;;;0.80;;
21060;SDS011;10689;50.836;3.266;2022-09-09T03:48:21;0.63;;;0.63;;
21060;SDS011;10689;50.836;3.266;2022-09-09T03:50:48;0.30;;;0.30;;
21060;SDS011;10689;50.836;3.266;2022-09-09T03:53:20;5.85;;;1.95;;
21060;SDS011;10689;50.836;3.266;2022-09-09T03:55:48;0.40;;;0.40;;
21060;SDS011;10689;50.836;3.266;2022-09-09T03:58:17;0.32;;;0.32;;
21060;SDS011;10689;50.836;3.266;2022-09-09T04:01:00;1.23;;;0.82;;
21060;SDS011;10689;50.836;3.266;2022-09-09T04:03:28;1.42;;;1.20;;
21060;SDS011;10689;50.836;3.266;2022-09-09T04:05:55;0.40;;;0.40;;
21060;SDS011;10689;50.836;3.266;2022-09-09T04:08:22;5.07;;;1.15;;
21060;SDS011;10689;50.836;3.266;2022-09-09T04:10:50;1.33;;;0.88;;
21060;SDS011;10689;50.836;3.266;2022-09-09T04:13:17;3.53;;;1.85;;
21060;SDS011;10689;50.836;3.266;2022-09-09T04:15:43;0.47;;;0.47;;
21060;SDS011;10689;50.836;3.266;2022-09-09T04:18:15;0.15;;;0.15;;
21060;SDS011;10689;50.836;3.266;2022-09-09T04:20:40;0.25;;;0.25;;
21060;SDS011;10689;50.836;3.266;2022-09-09T04:23:08;0.85;;;0.85;;
21060;SDS011;10689;50.836;3.266;2022-09-09T04:25:34;0.52;;;0.52;;
21060;SDS011;10689;50.836;3.266;2022-09-09T04:27:59;0.20;;;0.20;;
21060;SDS011;10689;50.836;3.266;2022-09-09T04:30:25;2.08;;;0.75;;
21060;SDS011;10689;50.836;3.266;2022-09-09T04:32:52;0.28;;;0.28;;
21060;SDS011;10689;50.836;3.266;2022-09-09T04:35:18;0.35;;;0.35;;
21060;SDS011;10689;50.836;3.266;2022-09-09T04:37:45;5.18;;;0.82;;
21060;SDS011;10689;50.836;3.266;2022-09-09T04:40:10;0.60;;;0.60;;
21060;SDS011;10689;50.836;3.266;2022-09-09T04:42:36;1.02;;;0.95;;
21060;SDS011;10689;50.836;3.266;2022-09-09T04:45:02;0.85;;;0.68;;
21060;SDS011;10689;50.836;3.266;2022-09-09T04:47:28;0.28;;;0.28;;
21060;SDS011;10689;50.836;3.266;2022-09-09T04:49:54;0.43;;;0.43;;
21060;SDS011;10689;50.836;3.266;2022-09-09T04:52:20;0.60;;;0.60;;
21060;SDS011;10689;50.836;3.266;2022-09-09T04:54:46;0.85;;;0.85;;
21060;SDS011;10689;50.836;3.266;2022-09-09T04:57:15;1.02;;;0.77;;
21060;SDS011;10689;50.836;3.266;2022-09-09T04:59:41;0.93;;;0.93;;
21060;SDS011;10689;50.836;3.266;2022-09-09T05:02:06;0.52;;;0.52;;
21060;SDS011;10689;50.836;3.266;2022-09-09T05:04:32;0.32;;;0.32;;
21060;SDS011;10689;50.836;3.266;2022-09-09T05:06:58;0.30;;;0.30;;
21060;SDS011;10689;50.836;3.266;2022-09-09T05:09:24;1.08;;;1.02;;
21060;SDS011;10689;50.836;3.266;2022-09-09T05:11:49;0.40;;;0.40;;
21060;SDS011;10689;50.836;3.266;2022-09-09T05:14:16;3.13;;;1.00;;
21060;SDS011;10689;50.836;3.266;2022-09-09T05:16:44;0.70;;;0.70;;
21060;SDS011;10689;50.836;3.266;2022-09-09T05:19:10;0.20;;;0.20;;
21060;SDS011;10689;50.836;3.266;2022-09-09T05:21:36;0.52;;;0.50;;
21060;SDS011;10689;50.836;3.266;2022-09-09T05:24:02;2.30;;;1.38;;
21060;SDS011;10689;50.836;3.266;2022-09-09T05:26:28;2.28;;;1.42;;
21060;SDS011;10689;50.836;3.266;2022-09-09T05:28:54;0.10;;;0.10;;
21060;SDS011;10689;50.836;3.266;2022-09-09T05:31:20;1.40;;;1.05;;
21060;SDS011;10689;50.836;3.266;2022-09-09T05:33:47;0.70;;;0.70;;
21060;SDS011;10689;50.836;3.266;2022-09-09T05:36:18;0.82;;;0.82;;
21060;SDS011;10689;50.836;3.266;2022-09-09T05:38:45;0.22;;;0.22;;
21060;SDS011;10689;50.836;3.266;2022-09-09T05:41:11;0.82;;;0.77;;
21060;SDS011;10689;50.836;3.266;2022-09-09T05:43:40;0.13;;;0.13;;
21060;SDS011;10689;50.836;3.266;2022-09-09T05:46:08;0.38;;;0.38;;
21060;SDS011;10689;50.836;3.266;2022-09-09T05:48:36;1.63;;;0.98;;
21060;SDS011;10689;50.836;3.266;2022-09-09T05:51:03;0.38;;;0.38;;
21060;SDS011;10689;50.836;3.266;2022-09-09T05:53:31;0.45;;;0.45;;
21060;SDS011;10689;50.836;3.266;2022-09-09T05:56:08;0.30;;;0.30;;
21060;SDS011;10689;50.836;3.266;2022-09-09T05:58:39;0.63;;;0.60;;
21060;SDS011;10689;50.836;3.266;2022-09-09T06:01:09;1.63;;;1.23;;
21060;SDS011;10689;50.836;3.266;2022-09-09T06:03:39;0.63;;;0.63;;
21060;SDS011;10689;50.836;3.266;2022-09-09T06:06:07;0.25;;;0.25;;
21060;SDS011;10689;50.836;3.266;2022-09-09T06:08:38;0.22;;;0.22;;
21060;SDS011;10689;50.836;3.266;2022-09-09T06:13:36;0.50;;;0.50;;
21060;SDS011;10689;50.836;3.266;2022-09-09T06:16:08;0.73;;;0.73;;
21060;SDS011;10689;50.836;3.266;2022-09-09T06:18:38;0.32;;;0.32;;
21060;SDS011;10689;50.836;3.266;2022-09-09T06:21:05;0.20;;;0.20;;
21060;SDS011;10689;50.836;3.266;2022-09-09T06:23:34;6.63;;;2.10;;
21060;SDS011;10689;50.836;3.266;2022-09-09T06:26:07;9.55;;;2.33;;
21060;SDS011;10689;50.836;3.266;2022-09-09T06:28:37;9.32;;;2.35;;
21060;SDS011;10689;50.836;3.266;2022-09-09T06:31:04;5.40;;;2.17;;
21060;SDS011;10689;50.836;3.266;2022-09-09T06:33:32;5.63;;;2.28;;
21060;SDS011;10689;50.836;3.266;2022-09-09T06:36:06;3.55;;;1.67;;
21060;SDS011;10689;50.836;3.266;2022-09-09T06:38:42;8.18;;;2.90;;
21060;SDS011;10689;50.836;3.266;2022-09-09T06:41:09;3.85;;;1.85;;
21060;SDS011;10689;50.836;3.266;2022-09-09T06:43:37;6.43;;;2.33;;
21060;SDS011;10689;50.836;3.266;2022-09-09T06:46:06;6.05;;;2.17;;
21060;SDS011;10689;50.836;3.266;2022-09-09T06:48:38;5.22;;;2.17;;
21060;SDS011;10689;50.836;3.266;2022-09-09T06:51:08;5.82;;;2.10;;
21060;SDS011;10689;50.836;3.266;2022-09-09T06:53:46;5.38;;;1.80;;
21060;SDS011;10689;50.836;3.266;2022-09-09T06:58:49;4.68;;;2.03;;
21060;SDS011;10689;50.836;3.266;2022-09-09T07:01:16;5.15;;;2.47;;
21060;SDS011;10689;50.836;3.266;2022-09-09T07:03:47;9.40;;;3.25;;
21060;SDS011;10689;50.836;3.266;2022-09-09T07:06:15;4.95;;;2.53;;
21060;SDS011;10689;50.836;3.266;2022-09-09T07:08:53;8.90;;;2.25;;
21060;SDS011;10689;50.836;3.266;2022-09-09T07:11:21;5.82;;;2.20;;
21060;SDS011;10689;50.836;3.266;2022-09-09T07:13:48;7.20;;;2.47;;
21060;SDS011;10689;50.836;3.266;2022-09-09T07:16:15;7.32;;;2.20;;
21060;SDS011;10689;50.836;3.266;2022-09-09T07:18:43;6.35;;;2.30;;
21060;SDS011;10689;50.836;3.266;2022-09-09T07:21:09;6.03;;;2.15;;
21060;SDS011;10689;50.836;3.266;2022-09-09T07:23:40;4.13;;;2.05;;
21060;SDS011;10689;50.836;3.266;2022-09-09T07:26:10;4.60;;;2.30;;
21060;SDS011;10689;50.836;3.266;2022-09-09T07:28:36;4.97;;;2.50;;
21060;SDS011;10689;50.836;3.266;2022-09-09T07:31:03;10.95;;;3.33;;
21060;SDS011;10689;50.836;3.266;2022-09-09T07:33:31;4.50;;;2.25;;
21060;SDS011;10689;50.836;3.266;2022-09-09T07:36:07;5.47;;;1.92;;
21060;SDS011;10689;50.836;3.266;2022-09-09T07:38:43;4.07;;;2.25;;
21060;SDS011;10689;50.836;3.266;2022-09-09T07:41:12;7.60;;;2.83;;
21060;SDS011;10689;50.836;3.266;2022-09-09T07:43:40;4.07;;;1.98;;
21060;SDS011;10689;50.836;3.266;2022-09-09T07:46:06;5.88;;;2.17;;
21060;SDS011;10689;50.836;3.266;2022-09-09T07:48:32;6.88;;;2.42;;
21060;SDS011;10689;50.836;3.266;2022-09-09T07:51:12;8.85;;;2.50;;
21060;SDS011;10689;50.836;3.266;2022-09-09T07:53:44;6.22;;;2.00;;
21060;SDS011;10689;50.836;3.266;2022-09-09T07:56:11;6.43;;;1.85;;
21060;SDS011;10689;50.836;3.266;2022-09-09T07:58:40;6.35;;;2.22;;
21060;SDS011;10689;50.836;3.266;2022-09-09T08:01:08;5.35;;;2.40;;
21060;SDS011;10689;50.836;3.266;2022-09-09T08:03:36;3.33;;;1.83;;
21060;SDS011;10689;50.836;3.266;2022-09-09T08:06:03;6.05;;;2.30;;
21060;SDS011;10689;50.836;3.266;2022-09-09T08:08:32;4.75;;;2.35;;
21060;SDS011;10689;50.836;3.266;2022-09-09T08:11:16;5.35;;;2.05;;
21060;SDS011;10689;50.836;3.266;2022-09-09T08:13:43;4.53;;;2.20;;
21060;SDS011;10689;50.836;3.266;2022-09-09T08:18:35;5.80;;;2.00;;
21060;SDS011;10689;50.836;3.266;2022-09-09T08:23:43;5.25;;;1.92;;
21060;SDS011;10689;50.836;3.266;2022-09-09T08:28:38;2.83;;;1.50;;
21060;SDS011;10689;50.836;3.266;2022-09-09T08:31:06;3.47;;;1.77;;
21060;SDS011;10689;50.836;3.266;2022-09-09T08:33:32;5.07;;;1.80;;
21060;SDS011;10689;50.836;3.266;2022-09-09T08:35:58;4.88;;;2.00;;
21060;SDS011;10689;50.836;3.266;2022-09-09T08:38:24;4.93;;;1.83;;
21060;SDS011;10689;50.836;3.266;2022-09-09T08:40:49;4.40;;;1.80;;
21060;SDS011;10689;50.836;3.266;2022-09-09T08:43:24;4.63;;;1.83;;
21060;SDS011;10689;50.836;3.266;2022-09-09T08:46:01;3.78;;;1.90;;
21060;SDS011;10689;50.836;3.266;2022-09-09T08:48:58;2.92;;;1.33;;
21060;SDS011;10689;50.836;3.266;2022-09-09T08:51:30;2.92;;;1.70;;
21060;SDS011;10689;50.836;3.266;2022-09-09T08:53:58;2.60;;;1.65;;
21060;SDS011;10689;50.836;3.266;2022-09-09T08:56:27;1.52;;;1.08;;
21060;SDS011;10689;50.836;3.266;2022-09-09T08:58:57;4.65;;;1.88;;
21060;SDS011;10689;50.836;3.266;2022-09-09T09:01:42;4.20;;;1.80;;
21060;SDS011;10689;50.836;3.266;2022-09-09T09:07:46;2.72;;;1.35;;
21060;SDS011;10689;50.836;3.266;2022-09-09T09:10:26;6.40;;;1.55;;
21060;SDS011;10689;50.836;3.266;2022-09-09T09:13:14;3.10;;;1.30;;
21060;SDS011;10689;50.836;3.266;2022-09-09T09:16:02;3.80;;;1.20;;
21060;SDS011;10689;50.836;3.266;2022-09-09T09:18:38;6.22;;;1.52;;
21060;SDS011;10689;50.836;3.266;2022-09-09T09:23:35;2.67;;;1.23;;
21060;SDS011;10689;50.836;3.266;2022-09-09T09:26:09;2.70;;;1.08;;
21060;SDS011;10689;50.836;3.266;2022-09-09T09:28:38;5.35;;;1.20;;
21060;SDS011;10689;50.836;3.266;2022-09-09T09:31:06;3.10;;;1.50;;
21060;SDS011;10689;50.836;3.266;2022-09-09T09:36:06;1.98;;;1.08;;
21060;SDS011;10689;50.836;3.266;2022-09-09T09:38:33;2.47;;;1.00;;
21060;SDS011;10689;50.836;3.266;2022-09-09T09:41:01;2.88;;;0.90;;
21060;SDS011;10689;50.836;3.266;2022-09-09T09:43:28;2.15;;;1.13;;
21060;SDS011;10689;50.836;3.266;2022-09-09T09:45:55;2.80;;;1.20;;
21060;SDS011;10689;50.836;3.266;2022-09-09T09:48:22;2.45;;;1.70;;
21060;SDS011;10689;50.836;3.266;2022-09-09T09:51:00;2.83;;;1.63;;
21060;SDS011;10689;50.836;3.266;2022-09-09T09:53:30;1.65;;;0.90;;
21060;SDS011;10689;50.836;3.266;2022-09-09T09:56:00;1.73;;;1.20;;
21060;SDS011;10689;50.836;3.266;2022-09-09T09:58:29;3.55;;;0.80;;
21060;SDS011;10689;50.836;3.266;2022-09-09T10:00:59;3.15;;;1.35;;
21060;SDS011;10689;50.836;3.266;2022-09-09T10:03:30;3.25;;;1.10;;
21060;SDS011;10689;50.836;3.266;2022-09-09T10:05:57;1.98;;;0.80;;
21060;SDS011;10689;50.836;3.266;2022-09-09T10:08:24;1.42;;;0.70;;
21060;SDS011;10689;50.836;3.266;2022-09-09T10:16:43;2.25;;;1.10;;
21060;SDS011;10689;50.836;3.266;2022-09-09T10:22:31;1.95;;;1.00;;
21060;SDS011;10689;50.836;3.266;2022-09-09T10:31:05;2.42;;;1.00;;
21060;SDS011;10689;50.836;3.266;2022-09-09T10:36:20;1.75;;;0.90;;
21060;SDS011;10689;50.836;3.266;2022-09-09T10:39:04;2.75;;;1.23;;
21060;SDS011;10689;50.836;3.266;2022-09-09T10:53:00;1.63;;;0.70;;
21060;SDS011;10689;50.836;3.266;2022-09-09T10:55:43;1.40;;;0.80;;
21060;SDS011;10689;50.836;3.266;2022-09-09T10:58:30;1.55;;;0.98;;
21060;SDS011;10689;50.836;3.266;2022-09-09T11:01:02;0.70;;;0.63;;
21060;SDS011;10689;50.836;3.266;2022-09-09T11:03:41;1.73;;;0.70;;
21060;SDS011;10689;50.836;3.266;2022-09-09T11:06:15;2.20;;;0.80;;
21060;SDS011;10689;50.836;3.266;2022-09-09T11:08:44;1.77;;;0.77;;
21060;SDS011;10689;50.836;3.266;2022-09-09T11:12:13;2.42;;;1.10;;
21060;SDS011;10689;50.836;3.266;2022-09-09T11:16:59;3.40;;;0.95;;
21060;SDS011;10689;50.836;3.266;2022-09-09T11:19:31;0.90;;;0.77;;
21060;SDS011;10689;50.836;3.266;2022-09-09T11:22:43;1.92;;;0.75;;
21060;SDS011;10689;50.836;3.266;2022-09-09T11:24:51;1.30;;;0.90;;
21060;SDS011;10689;50.836;3.266;2022-09-09T11:27:24;1.88;;;0.70;;
21060;SDS011;10689;50.836;3.266;2022-09-09T11:35:37;1.38;;;0.80;;
21060;SDS011;10689;50.836;3.266;2022-09-09T11:40:41;1.38;;;0.60;;
21060;SDS011;10689;50.836;3.266;2022-09-09T11:43:15;2.45;;;0.82;;
21060;SDS011;10689;50.836;3.266;2022-09-09T11:45:51;2.38;;;0.90;;
21060;SDS011;10689;50.836;3.266;2022-09-09T11:48:34;1.10;;;0.70;;
21060;SDS011;10689;50.836;3.266;2022-09-09T11:53:28;1.45;;;0.75;;
21060;SDS011;10689;50.836;3.266;2022-09-09T11:58:28;1.27;;;0.70;;
21060;SDS011;10689;50.836;3.266;2022-09-09T12:01:14;2.22;;;0.70;;
21060;SDS011;10689;50.836;3.266;2022-09-09T12:04:04;5.40;;;0.93;;
21060;SDS011;10689;50.836;3.266;2022-09-09T12:06:41;3.42;;;1.20;;
21060;SDS011;10689;50.836;3.266;2022-09-09T12:09:17;1.35;;;0.60;;
21060;SDS011;10689;50.836;3.266;2022-09-09T12:17:25;2.08;;;1.00;;
21060;SDS011;10689;50.836;3.266;2022-09-09T12:25:34;2.53;;;0.70;;
21060;SDS011;10689;50.836;3.266;2022-09-09T12:28:14;2.10;;;1.00;;
21060;SDS011;10689;50.836;3.266;2022-09-09T12:31:00;4.75;;;0.95;;
21060;SDS011;10689;50.836;3.266;2022-09-09T12:33:47;3.30;;;0.85;;
21060;SDS011;10689;50.836;3.266;2022-09-09T12:36:16;3.47;;;1.02;;
21060;SDS011;10689;50.836;3.266;2022-09-09T12:38:54;4.70;;;0.90;;
21060;SDS011;10689;50.836;3.266;2022-09-09T12:41:25;1.45;;;1.00;;
21060;SDS011;10689;50.836;3.266;2022-09-09T12:44:08;1.60;;;0.82;;
21060;SDS011;10689;50.836;3.266;2022-09-09T12:46:39;1.10;;;0.73;;
21060;SDS011;10689;50.836;3.266;2022-09-09T12:52:01;3.63;;;1.23;;
21060;SDS011;10689;50.836;3.266;2022-09-09T12:54:30;1.98;;;0.88;;
21060;SDS011;10689;50.836;3.266;2022-09-09T12:56:57;2.88;;;0.80;;
21060;SDS011;10689;50.836;3.266;2022-09-09T12:59:24;1.13;;;0.70;;
21060;SDS011;10689;50.836;3.266;2022-09-09T13:01:55;1.77;;;0.75;;
21060;SDS011;10689;50.836;3.266;2022-09-09T13:04:24;0.80;;;0.70;;
21060;SDS011;10689;50.836;3.266;2022-09-09T13:06:50;1.95;;;1.00;;
21060;SDS011;10689;50.836;3.266;2022-09-09T13:09:17;1.95;;;0.57;;
21060;SDS011;10689;50.836;3.266;2022-09-09T13:11:50;1.48;;;0.80;;
21060;SDS011;10689;50.836;3.266;2022-09-09T13:14:28;1.30;;;0.70;;
21060;SDS011;10689;50.836;3.266;2022-09-09T13:17:01;2.22;;;1.00;;
21060;SDS011;10689;50.836;3.266;2022-09-09T13:19:32;2.60;;;0.77;;
21060;SDS011;10689;50.836;3.266;2022-09-09T13:25:17;2.60;;;0.88;;
21060;SDS011;10689;50.836;3.266;2022-09-09T13:27:52;1.33;;;0.60;;
21060;SDS011;10689;50.836;3.266;2022-09-09T13:35:50;2.85;;;0.80;;
21060;SDS011;10689;50.836;3.266;2022-09-09T13:38:28;1.90;;;0.73;;
21060;SDS011;10689;50.836;3.266;2022-09-09T13:41:04;1.65;;;0.90;;
21060;SDS011;10689;50.836;3.266;2022-09-09T13:43:36;0.85;;;0.60;;
21060;SDS011;10689;50.836;3.266;2022-09-09T13:51:34;1.60;;;0.82;;
21060;SDS011;10689;50.836;3.266;2022-09-09T13:54:04;4.47;;;0.70;;
21060;SDS011;10689;50.836;3.266;2022-09-09T13:56:34;1.40;;;0.60;;
21060;SDS011;10689;50.836;3.266;2022-09-09T13:59:01;2.03;;;0.70;;
21060;SDS011;10689;50.836;3.266;2022-09-09T14:01:28;3.85;;;0.63;;
21060;SDS011;10689;50.836;3.266;2022-09-09T14:03:54;0.80;;;0.50;;
21060;SDS011;10689;50.836;3.266;2022-09-09T14:06:20;1.42;;;1.00;;
21060;SDS011;10689;50.836;3.266;2022-09-09T14:08:49;1.38;;;0.73;;
21060;SDS011;10689;50.836;3.266;2022-09-09T14:11:16;0.93;;;0.50;;
21060;SDS011;10689;50.836;3.266;2022-09-09T14:13:42;1.85;;;0.50;;
21060;SDS011;10689;50.836;3.266;2022-09-09T14:16:09;1.83;;;0.40;;
21060;SDS011;10689;50.836;3.266;2022-09-09T14:18:35;1.42;;;0.50;;
21060;SDS011;10689;50.836;3.266;2022-09-09T14:21:02;1.00;;;0.40;;
21060;SDS011;10689;50.836;3.266;2022-09-09T14:23:28;1.45;;;0.40;;
21060;SDS011;10689;50.836;3.266;2022-09-09T14:25:54;0.95;;;0.40;;
21060;SDS011;10689;50.836;3.266;2022-09-09T14:28:21;0.88;;;0.70;;
21060;SDS011;10689;50.836;3.266;2022-09-09T14:30:46;3.30;;;0.80;;
21060;SDS011;10689;50.836;3.266;2022-09-09T14:33:13;7.38;;;2.63;;
21060;SDS011;10689;50.836;3.266;2022-09-09T14:35:40;1.38;;;0.85;;
21060;SDS011;10689;50.836;3.266;2022-09-09T14:38:07;2.67;;;0.95;;
21060;SDS011;10689;50.836;3.266;2022-09-09T14:40:34;1.08;;;0.77;;
21060;SDS011;10689;50.836;3.266;2022-09-09T14:43:00;4.38;;;1.20;;
21060;SDS011;10689;50.836;3.266;2022-09-09T14:45:27;1.73;;;0.90;;
21060;SDS011;10689;50.836;3.266;2022-09-09T14:47:53;1.70;;;0.98;;
21060;SDS011;10689;50.836;3.266;2022-09-09T14:50:19;2.25;;;1.02;;
21060;SDS011;10689;50.836;3.266;2022-09-09T14:52:46;3.25;;;0.82;;
21060;SDS011;10689;50.836;3.266;2022-09-09T14:55:13;1.52;;;0.85;;
21060;SDS011;10689;50.836;3.266;2022-09-09T14:57:39;2.85;;;1.40;;
21060;SDS011;10689;50.836;3.266;2022-09-09T15:00:06;2.60;;;1.77;;
21060;SDS011;10689;50.836;3.266;2022-09-09T15:02:34;5.50;;;1.60;;
21060;SDS011;10689;50.836;3.266;2022-09-09T15:05:00;2.17;;;1.33;;
21060;SDS011;10689;50.836;3.266;2022-09-09T15:07:26;2.10;;;0.90;;
21060;SDS011;10689;50.836;3.266;2022-09-09T15:09:53;2.90;;;0.77;;
21060;SDS011;10689;50.836;3.266;2022-09-09T15:12:19;3.13;;;0.77;;
21060;SDS011;10689;50.836;3.266;2022-09-09T15:14:45;0.65;;;0.52;;
21060;SDS011;10689;50.836;3.266;2022-09-09T15:17:11;0.52;;;0.50;;
21060;SDS011;10689;50.836;3.266;2022-09-09T15:19:37;5.22;;;0.68;;
21060;SDS011;10689;50.836;3.266;2022-09-09T15:22:04;0.75;;;0.50;;
21060;SDS011;10689;50.836;3.266;2022-09-09T15:24:33;1.20;;;0.95;;
21060;SDS011;10689;50.836;3.266;2022-09-09T15:27:00;1.00;;;0.63;;
21060;SDS011;10689;50.836;3.266;2022-09-09T15:29:26;0.50;;;0.50;;
21060;SDS011;10689;50.836;3.266;2022-09-09T15:31:53;2.00;;;1.00;;
21060;SDS011;10689;50.836;3.266;2022-09-09T15:34:20;2.22;;;0.70;;
21060;SDS011;10689;50.836;3.266;2022-09-09T15:36:46;1.73;;;0.52;;
21060;SDS011;10689;50.836;3.266;2022-09-09T15:39:13;1.30;;;1.00;;
21060;SDS011;10689;50.836;3.266;2022-09-09T15:41:42;1.20;;;1.00;;
21060;SDS011;10689;50.836;3.266;2022-09-09T15:44:08;1.23;;;0.82;;
21060;SDS011;10689;50.836;3.266;2022-09-09T15:46:41;0.80;;;0.77;;
21060;SDS011;10689;50.836;3.266;2022-09-09T15:49:19;1.95;;;1.00;;
21060;SDS011;10689;50.836;3.266;2022-09-09T15:51:59;1.60;;;1.10;;
21060;SDS011;10689;50.836;3.266;2022-09-09T15:54:28;1.30;;;0.98;;
21060;SDS011;10689;50.836;3.266;2022-09-09T15:56:58;3.63;;;1.08;;
21060;SDS011;10689;50.836;3.266;2022-09-09T15:59:25;3.30;;;1.10;;
21060;SDS011;10689;50.836;3.266;2022-09-09T16:01:53;3.13;;;1.38;;
21060;SDS011;10689;50.836;3.266;2022-09-09T16:04:20;2.17;;;1.30;;
21060;SDS011;10689;50.836;3.266;2022-09-09T16:06:50;3.45;;;1.55;;
21060;SDS011;10689;50.836;3.266;2022-09-09T16:09:22;3.17;;;1.10;;
21060;SDS011;10689;50.836;3.266;2022-09-09T16:11:48;2.50;;;0.90;;
21060;SDS011;10689;50.836;3.266;2022-09-09T16:14:14;2.80;;;1.30;;
21060;SDS011;10689;50.836;3.266;2022-09-09T16:16:41;2.83;;;0.90;;
21060;SDS011;10689;50.836;3.266;2022-09-09T16:19:08;3.00;;;1.45;;
21060;SDS011;10689;50.836;3.266;2022-09-09T16:21:40;6.75;;;0.90;;
21060;SDS011;10689;50.836;3.266;2022-09-09T16:24:08;3.65;;;1.40;;
21060;SDS011;10689;50.836;3.266;2022-09-09T16:26:36;1.02;;;0.93;;
21060;SDS011;10689;50.836;3.266;2022-09-09T16:29:03;4.10;;;1.00;;
21060;SDS011;10689;50.836;3.266;2022-09-09T16:31:30;3.47;;;1.55;;
21060;SDS011;10689;50.836;3.266;2022-09-09T16:33:59;2.08;;;0.95;;
21060;SDS011;10689;50.836;3.266;2022-09-09T16:36:26;3.28;;;1.63;;
21060;SDS011;10689;50.836;3.266;2022-09-09T16:38:55;5.03;;;1.60;;
21060;SDS011;10689;50.836;3.266;2022-09-09T16:41:26;3.38;;;1.33;;
21060;SDS011;10689;50.836;3.266;2022-09-09T16:43:57;3.53;;;1.27;;
21060;SDS011;10689;50.836;3.266;2022-09-09T16:46:25;2.28;;;1.30;;
21060;SDS011;10689;50.836;3.266;2022-09-09T16:48:53;4.63;;;1.00;;
21060;SDS011;10689;50.836;3.266;2022-09-09T16:51:24;3.47;;;1.65;;
21060;SDS011;10689;50.836;3.266;2022-09-09T16:53:52;8.50;;;1.40;;
21060;SDS011;10689;50.836;3.266;2022-09-09T16:56:25;5.32;;;1.27;;
21060;SDS011;10689;50.836;3.266;2022-09-09T16:58:53;8.35;;;1.92;;
21060;SDS011;10689;50.836;3.266;2022-09-09T17:01:25;5.53;;;1.50;;
21060;SDS011;10689;50.836;3.266;2022-09-09T17:03:55;5.25;;;1.63;;
21060;SDS011;10689;50.836;3.266;2022-09-09T17:06:22;6.80;;;1.52;;
21060;SDS011;10689;50.836;3.266;2022-09-09T17:08:53;6.18;;;1.70;;
21060;SDS011;10689;50.836;3.266;2022-09-09T17:11:20;3.53;;;1.80;;
21060;SDS011;10689;50.836;3.266;2022-09-09T17:13:46;4.20;;;1.33;;
21060;SDS011;10689;50.836;3.266;2022-09-09T17:16:13;7.53;;;1.35;;
21060;SDS011;10689;50.836;3.266;2022-09-09T17:18:41;4.82;;;1.27;;
21060;SDS011;10689;50.836;3.266;2022-09-09T17:21:08;6.45;;;2.17;;
21060;SDS011;10689;50.836;3.266;2022-09-09T17:23:39;4.32;;;2.75;;
21060;SDS011;10689;50.836;3.266;2022-09-09T17:26:06;3.90;;;1.90;;
21060;SDS011;10689;50.836;3.266;2022-09-09T17:28:34;3.78;;;1.42;;
21060;SDS011;10689;50.836;3.266;2022-09-09T17:31:01;12.88;;;2.15;;
21060;SDS011;10689;50.836;3.266;2022-09-09T17:33:29;3.63;;;1.20;;
21060;SDS011;10689;50.836;3.266;2022-09-09T17:35:56;2.58;;;1.10;;